sensor_id;sensor_type;location;lat;lon;timestamp;P1;durP1;ratioP1;P2;durP2;ratioP2
77968;SDS011;67161;0.000;0.000;2023-02-28T00:00:51;3.90;;;1.70;;
77968;SDS011;67161;0.000;0.000;2023-02-28T00:03:17;3.95;;;1.50;;
77968;SDS011;67161;0.000;0.000;2023-02-28T00:05:43;4.18;;;1.80;;
77968;SDS011;67161;0.000;0.000;2023-02-28T00:08:09;3.28;;;1.70;;
77968;SDS011;67161;0.000;0.000;2023-02-28T00:10:34;4.72;;;1.60;;
77968;SDS011;67161;0.000;0.000;2023-02-28T00:13:02;3.92;;;1.30;;
77968;SDS011;67161;0.000;0.000;2023-02-28T00:15:30;3.38;;;1.60;;
77968;SDS011;67161;0.000;0.000;2023-02-28T00:17:56;3.85;;;1.73;;
77968;SDS011;67161;0.000;0.000;2023-02-28T00:20:22;3.58;;;1.80;;
77968;SDS011;67161;0.000;0.000;2023-02-28T00:22:49;2.60;;;1.40;;
77968;SDS011;67161;0.000;0.000;2023-02-28T00:25:17;3.55;;;1.70;;
77968;SDS011;67161;0.000;0.000;2023-02-28T00:27:44;3.15;;;1.48;;
77968;SDS011;67161;0.000;0.000;2023-02-28T00:30:11;2.53;;;1.42;;
77968;SDS011;67161;0.000;0.000;2023-02-28T00:32:39;2.60;;;1.33;;
77968;SDS011;67161;0.000;0.000;2023-02-28T00:35:05;3.38;;;1.30;;
77968;SDS011;67161;0.000;0.000;2023-02-28T00:37:32;3.40;;;1.75;;
77968;SDS011;67161;0.000;0.000;2023-02-28T00:39:57;3.15;;;1.50;;
77968;SDS011;67161;0.000;0.000;2023-02-28T00:42:23;4.32;;;1.58;;
77968;SDS011;67161;0.000;0.000;2023-02-28T00:44:49;3.00;;;1.40;;
77968;SDS011;67161;0.000;0.000;2023-02-28T00:47:15;3.70;;;1.40;;
77968;SDS011;67161;0.000;0.000;2023-02-28T00:49:41;3.15;;;1.38;;
77968;SDS011;67161;0.000;0.000;2023-02-28T00:52:07;3.03;;;1.40;;
77968;SDS011;67161;0.000;0.000;2023-02-28T00:54:32;3.13;;;1.52;;
77968;SDS011;67161;0.000;0.000;2023-02-28T00:56:58;4.57;;;1.40;;
77968;SDS011;67161;0.000;0.000;2023-02-28T00:59:24;3.08;;;1.40;;
77968;SDS011;67161;0.000;0.000;2023-02-28T01:01:49;2.53;;;1.30;;
77968;SDS011;67161;0.000;0.000;2023-02-28T01:04:15;3.50;;;1.42;;
77968;SDS011;67161;0.000;0.000;2023-02-28T01:06:41;3.00;;;1.40;;
77968;SDS011;67161;0.000;0.000;2023-02-28T01:09:07;2.92;;;1.30;;
77968;SDS011;67161;0.000;0.000;2023-02-28T01:11:33;2.38;;;1.27;;
77968;SDS011;67161;0.000;0.000;2023-02-28T01:14:00;2.78;;;1.30;;
77968;SDS011;67161;0.000;0.000;2023-02-28T01:16:26;3.45;;;1.17;;
77968;SDS011;67161;0.000;0.000;2023-02-28T01:18:52;2.72;;;1.10;;
77968;SDS011;67161;0.000;0.000;2023-02-28T01:21:18;2.15;;;1.10;;
77968;SDS011;67161;0.000;0.000;2023-02-28T01:23:45;2.10;;;1.00;;
77968;SDS011;67161;0.000;0.000;2023-02-28T01:26:19;3.20;;;1.20;;
77968;SDS011;67161;0.000;0.000;2023-02-28T01:28:47;2.75;;;1.25;;
77968;SDS011;67161;0.000;0.000;2023-02-28T01:31:13;3.38;;;1.23;;
77968;SDS011;67161;0.000;0.000;2023-02-28T01:33:39;1.90;;;1.00;;
77968;SDS011;67161;0.000;0.000;2023-02-28T01:36:06;3.92;;;1.40;;
77968;SDS011;67161;0.000;0.000;2023-02-28T01:38:34;2.47;;;1.30;;
77968;SDS011;67161;0.000;0.000;2023-02-28T01:41:01;3.25;;;1.05;;
77968;SDS011;67161;0.000;0.000;2023-02-28T01:43:31;2.35;;;1.15;;
77968;SDS011;67161;0.000;0.000;2023-02-28T01:46:17;3.53;;;1.20;;
77968;SDS011;67161;0.000;0.000;2023-02-28T01:51:37;3.28;;;1.23;;
77968;SDS011;67161;0.000;0.000;2023-02-28T01:54:05;3.00;;;1.20;;
77968;SDS011;67161;0.000;0.000;2023-02-28T01:56:38;2.80;;;1.20;;
77968;SDS011;67161;0.000;0.000;2023-02-28T02:01:38;2.30;;;1.20;;
77968;SDS011;67161;0.000;0.000;2023-02-28T02:04:04;2.42;;;0.90;;
77968;SDS011;67161;0.000;0.000;2023-02-28T02:06:37;2.70;;;0.98;;
77968;SDS011;67161;0.000;0.000;2023-02-28T02:09:07;2.75;;;1.10;;
77968;SDS011;67161;0.000;0.000;2023-02-28T02:11:33;3.80;;;1.17;;
77968;SDS011;67161;0.000;0.000;2023-02-28T02:19:13;2.45;;;1.02;;
77968;SDS011;67161;0.000;0.000;2023-02-28T02:21:52;4.13;;;1.17;;
77968;SDS011;67161;0.000;0.000;2023-02-28T02:24:45;2.05;;;1.10;;
77968;SDS011;67161;0.000;0.000;2023-02-28T02:33:06;1.90;;;0.90;;
77968;SDS011;67161;0.000;0.000;2023-02-28T02:36:12;2.40;;;0.95;;
77968;SDS011;67161;0.000;0.000;2023-02-28T02:41:36;2.13;;;0.70;;
77968;SDS011;67161;0.000;0.000;2023-02-28T02:44:31;2.58;;;0.82;;
77968;SDS011;67161;0.000;0.000;2023-02-28T02:47:11;2.38;;;0.90;;
77968;SDS011;67161;0.000;0.000;2023-02-28T02:49:40;1.85;;;0.90;;
77968;SDS011;67161;0.000;0.000;2023-02-28T02:52:11;2.28;;;0.93;;
77968;SDS011;67161;0.000;0.000;2023-02-28T02:54:43;2.47;;;1.02;;
77968;SDS011;67161;0.000;0.000;2023-02-28T02:57:13;2.90;;;0.90;;
77968;SDS011;67161;0.000;0.000;2023-02-28T02:59:54;2.38;;;0.98;;
77968;SDS011;67161;0.000;0.000;2023-02-28T03:02:21;2.20;;;0.80;;
77968;SDS011;67161;0.000;0.000;2023-02-28T03:04:56;2.38;;;0.77;;
77968;SDS011;67161;0.000;0.000;2023-02-28T03:07:25;2.38;;;0.80;;
77968;SDS011;67161;0.000;0.000;2023-02-28T03:09:52;2.00;;;1.00;;
77968;SDS011;67161;0.000;0.000;2023-02-28T03:12:23;2.38;;;0.98;;
77968;SDS011;67161;0.000;0.000;2023-02-28T03:15:04;1.60;;;0.80;;
77968;SDS011;67161;0.000;0.000;2023-02-28T03:23:29;2.05;;;0.88;;
77968;SDS011;67161;0.000;0.000;2023-02-28T03:26:20;2.97;;;0.82;;
77968;SDS011;67161;0.000;0.000;2023-02-28T03:28:53;2.25;;;0.95;;
77968;SDS011;67161;0.000;0.000;2023-02-28T03:31:30;2.85;;;1.05;;
77968;SDS011;67161;0.000;0.000;2023-02-28T03:34:08;2.25;;;0.90;;
77968;SDS011;67161;0.000;0.000;2023-02-28T03:36:43;2.67;;;1.00;;
77968;SDS011;67161;0.000;0.000;2023-02-28T03:39:22;2.55;;;1.10;;
77968;SDS011;67161;0.000;0.000;2023-02-28T03:44:40;2.17;;;1.00;;
77968;SDS011;67161;0.000;0.000;2023-02-28T03:47:21;1.83;;;1.00;;
77968;SDS011;67161;0.000;0.000;2023-02-28T03:49:58;2.65;;;0.95;;
77968;SDS011;67161;0.000;0.000;2023-02-28T03:52:31;3.47;;;1.15;;
77968;SDS011;67161;0.000;0.000;2023-02-28T03:55:03;2.45;;;1.08;;
77968;SDS011;67161;0.000;0.000;2023-02-28T04:00:14;3.30;;;1.05;;
77968;SDS011;67161;0.000;0.000;2023-02-28T04:02:45;2.58;;;1.10;;
77968;SDS011;67161;0.000;0.000;2023-02-28T04:05:10;2.42;;;1.10;;
77968;SDS011;67161;0.000;0.000;2023-02-28T04:07:36;1.73;;;1.08;;
77968;SDS011;67161;0.000;0.000;2023-02-28T04:10:03;4.03;;;1.15;;
77968;SDS011;67161;0.000;0.000;2023-02-28T04:12:29;3.17;;;1.13;;
77968;SDS011;67161;0.000;0.000;2023-02-28T04:14:55;2.58;;;1.00;;
77968;SDS011;67161;0.000;0.000;2023-02-28T04:17:20;2.72;;;1.00;;
77968;SDS011;67161;0.000;0.000;2023-02-28T04:19:46;3.55;;;1.10;;
77968;SDS011;67161;0.000;0.000;2023-02-28T04:22:11;3.05;;;1.02;;
77968;SDS011;67161;0.000;0.000;2023-02-28T04:24:38;4.10;;;1.00;;
77968;SDS011;67161;0.000;0.000;2023-02-28T04:27:06;2.63;;;0.90;;
77968;SDS011;67161;0.000;0.000;2023-02-28T04:29:33;3.33;;;0.90;;
77968;SDS011;67161;0.000;0.000;2023-02-28T04:32:00;2.55;;;1.10;;
77968;SDS011;67161;0.000;0.000;2023-02-28T04:34:29;2.63;;;0.98;;
77968;SDS011;67161;0.000;0.000;2023-02-28T04:36:56;3.00;;;0.98;;
77968;SDS011;67161;0.000;0.000;2023-02-28T04:39:22;2.75;;;0.82;;
77968;SDS011;67161;0.000;0.000;2023-02-28T04:41:49;2.05;;;0.90;;
77968;SDS011;67161;0.000;0.000;2023-02-28T04:44:15;2.78;;;1.02;;
77968;SDS011;67161;0.000;0.000;2023-02-28T04:46:41;2.40;;;0.90;;
77968;SDS011;67161;0.000;0.000;2023-02-28T04:49:09;2.38;;;0.93;;
77968;SDS011;67161;0.000;0.000;2023-02-28T04:51:36;1.45;;;0.70;;
77968;SDS011;67161;0.000;0.000;2023-02-28T04:54:02;2.70;;;1.00;;
77968;SDS011;67161;0.000;0.000;2023-02-28T04:56:27;2.10;;;0.80;;
77968;SDS011;67161;0.000;0.000;2023-02-28T04:58:53;2.13;;;0.90;;
77968;SDS011;67161;0.000;0.000;2023-02-28T05:01:23;2.17;;;0.77;;
77968;SDS011;67161;0.000;0.000;2023-02-28T05:03:49;1.38;;;0.60;;
77968;SDS011;67161;0.000;0.000;2023-02-28T05:06:16;1.25;;;0.77;;
77968;SDS011;67161;0.000;0.000;2023-02-28T05:08:42;2.05;;;0.75;;
77968;SDS011;67161;0.000;0.000;2023-02-28T05:11:16;2.15;;;0.73;;
77968;SDS011;67161;0.000;0.000;2023-02-28T05:13:48;1.25;;;0.70;;
77968;SDS011;67161;0.000;0.000;2023-02-28T05:16:14;1.45;;;0.80;;
77968;SDS011;67161;0.000;0.000;2023-02-28T05:18:40;1.60;;;0.80;;
77968;SDS011;67161;0.000;0.000;2023-02-28T05:21:06;2.20;;;0.80;;
77968;SDS011;67161;0.000;0.000;2023-02-28T05:23:48;1.60;;;0.80;;
77968;SDS011;67161;0.000;0.000;2023-02-28T05:26:14;3.20;;;0.95;;
77968;SDS011;67161;0.000;0.000;2023-02-28T05:28:39;2.13;;;0.88;;
77968;SDS011;67161;0.000;0.000;2023-02-28T05:31:05;0.88;;;0.60;;
77968;SDS011;67161;0.000;0.000;2023-02-28T05:33:30;2.05;;;0.98;;
77968;SDS011;67161;0.000;0.000;2023-02-28T05:35:56;1.60;;;0.70;;
77968;SDS011;67161;0.000;0.000;2023-02-28T05:38:21;1.83;;;0.88;;
77968;SDS011;67161;0.000;0.000;2023-02-28T05:40:47;2.33;;;0.90;;
77968;SDS011;67161;0.000;0.000;2023-02-28T05:43:13;1.92;;;0.80;;
77968;SDS011;67161;0.000;0.000;2023-02-28T05:45:38;1.55;;;0.80;;
77968;SDS011;67161;0.000;0.000;2023-02-28T05:48:04;1.70;;;0.80;;
77968;SDS011;67161;0.000;0.000;2023-02-28T05:50:30;1.73;;;0.73;;
77968;SDS011;67161;0.000;0.000;2023-02-28T05:52:55;2.10;;;0.80;;
77968;SDS011;67161;0.000;0.000;2023-02-28T05:55:21;1.30;;;0.63;;
77968;SDS011;67161;0.000;0.000;2023-02-28T05:57:47;1.70;;;0.80;;
77968;SDS011;67161;0.000;0.000;2023-02-28T06:00:12;2.42;;;0.85;;
77968;SDS011;67161;0.000;0.000;2023-02-28T06:02:40;2.15;;;0.80;;
77968;SDS011;67161;0.000;0.000;2023-02-28T06:05:08;2.80;;;0.88;;
77968;SDS011;67161;0.000;0.000;2023-02-28T06:07:39;1.67;;;0.90;;
77968;SDS011;67161;0.000;0.000;2023-02-28T06:10:05;1.75;;;0.77;;
77968;SDS011;67161;0.000;0.000;2023-02-28T06:12:31;1.40;;;0.70;;
77968;SDS011;67161;0.000;0.000;2023-02-28T06:14:56;1.35;;;0.70;;
77968;SDS011;67161;0.000;0.000;2023-02-28T06:17:22;1.85;;;0.80;;
77968;SDS011;67161;0.000;0.000;2023-02-28T06:19:47;1.77;;;0.85;;
77968;SDS011;67161;0.000;0.000;2023-02-28T06:22:13;2.00;;;0.90;;
77968;SDS011;67161;0.000;0.000;2023-02-28T06:24:39;2.10;;;0.80;;
77968;SDS011;67161;0.000;0.000;2023-02-28T06:27:04;1.38;;;0.75;;
77968;SDS011;67161;0.000;0.000;2023-02-28T06:29:33;1.65;;;0.88;;
77968;SDS011;67161;0.000;0.000;2023-02-28T06:32:00;2.13;;;0.90;;
77968;SDS011;67161;0.000;0.000;2023-02-28T06:34:26;1.13;;;0.70;;
77968;SDS011;67161;0.000;0.000;2023-02-28T06:36:51;1.10;;;0.73;;
77968;SDS011;67161;0.000;0.000;2023-02-28T06:39:17;1.77;;;0.73;;
77968;SDS011;67161;0.000;0.000;2023-02-28T06:41:44;2.03;;;0.77;;
77968;SDS011;67161;0.000;0.000;2023-02-28T06:44:16;1.70;;;0.88;;
77968;SDS011;67161;0.000;0.000;2023-02-28T06:46:43;2.45;;;0.90;;
77968;SDS011;67161;0.000;0.000;2023-02-28T06:49:10;2.95;;;1.08;;
77968;SDS011;67161;0.000;0.000;2023-02-28T06:51:37;2.28;;;0.80;;
77968;SDS011;67161;0.000;0.000;2023-02-28T06:54:04;1.60;;;0.90;;
77968;SDS011;67161;0.000;0.000;2023-02-28T06:56:30;2.08;;;0.98;;
77968;SDS011;67161;0.000;0.000;2023-02-28T06:58:56;1.25;;;0.70;;
77968;SDS011;67161;0.000;0.000;2023-02-28T07:01:22;1.73;;;1.00;;
77968;SDS011;67161;0.000;0.000;2023-02-28T07:03:49;1.23;;;0.77;;
77968;SDS011;67161;0.000;0.000;2023-02-28T07:06:21;0.90;;;0.80;;
77968;SDS011;67161;0.000;0.000;2023-02-28T07:08:50;3.13;;;1.10;;
77968;SDS011;67161;0.000;0.000;2023-02-28T07:11:17;1.45;;;0.82;;
77968;SDS011;67161;0.000;0.000;2023-02-28T07:13:43;2.00;;;0.90;;
77968;SDS011;67161;0.000;0.000;2023-02-28T07:16:10;1.60;;;0.80;;
77968;SDS011;67161;0.000;0.000;2023-02-28T07:18:36;2.13;;;0.90;;
77968;SDS011;67161;0.000;0.000;2023-02-28T07:21:06;1.50;;;0.80;;
77968;SDS011;67161;0.000;0.000;2023-02-28T07:23:34;1.45;;;1.00;;
77968;SDS011;67161;0.000;0.000;2023-02-28T07:26:00;2.30;;;0.90;;
77968;SDS011;67161;0.000;0.000;2023-02-28T07:28:26;1.55;;;0.90;;
77968;SDS011;67161;0.000;0.000;2023-02-28T07:30:52;2.40;;;1.08;;
77968;SDS011;67161;0.000;0.000;2023-02-28T07:33:18;2.15;;;0.90;;
77968;SDS011;67161;0.000;0.000;2023-02-28T07:35:43;1.75;;;0.70;;
77968;SDS011;67161;0.000;0.000;2023-02-28T07:38:09;2.03;;;1.10;;
77968;SDS011;67161;0.000;0.000;2023-02-28T07:40:35;2.10;;;0.82;;
77968;SDS011;67161;0.000;0.000;2023-02-28T07:43:01;2.15;;;0.93;;
77968;SDS011;67161;0.000;0.000;2023-02-28T07:45:28;1.73;;;0.90;;
77968;SDS011;67161;0.000;0.000;2023-02-28T07:47:54;2.75;;;0.88;;
77968;SDS011;67161;0.000;0.000;2023-02-28T07:50:20;1.90;;;1.10;;
77968;SDS011;67161;0.000;0.000;2023-02-28T07:52:46;1.67;;;1.00;;
77968;SDS011;67161;0.000;0.000;2023-02-28T07:55:12;1.88;;;0.90;;
77968;SDS011;67161;0.000;0.000;2023-02-28T07:57:39;1.98;;;0.80;;
77968;SDS011;67161;0.000;0.000;2023-02-28T08:00:06;2.15;;;1.05;;
77968;SDS011;67161;0.000;0.000;2023-02-28T08:02:37;2.47;;;1.02;;
77968;SDS011;67161;0.000;0.000;2023-02-28T08:05:03;1.85;;;0.90;;
77968;SDS011;67161;0.000;0.000;2023-02-28T08:07:30;2.55;;;0.82;;
77968;SDS011;67161;0.000;0.000;2023-02-28T08:09:55;1.30;;;0.70;;
77968;SDS011;67161;0.000;0.000;2023-02-28T08:12:21;1.48;;;0.85;;
77968;SDS011;67161;0.000;0.000;2023-02-28T08:14:47;1.65;;;0.80;;
77968;SDS011;67161;0.000;0.000;2023-02-28T08:17:12;1.30;;;0.80;;
77968;SDS011;67161;0.000;0.000;2023-02-28T08:19:38;2.33;;;0.90;;
77968;SDS011;67161;0.000;0.000;2023-02-28T08:22:04;2.08;;;0.80;;
77968;SDS011;67161;0.000;0.000;2023-02-28T08:24:29;2.15;;;0.90;;
77968;SDS011;67161;0.000;0.000;2023-02-28T08:26:55;2.80;;;0.90;;
77968;SDS011;67161;0.000;0.000;2023-02-28T08:29:21;1.45;;;0.82;;
77968;SDS011;67161;0.000;0.000;2023-02-28T08:31:47;3.65;;;0.70;;
77968;SDS011;67161;0.000;0.000;2023-02-28T08:34:13;1.23;;;0.70;;
77968;SDS011;67161;0.000;0.000;2023-02-28T08:36:40;1.55;;;0.70;;
77968;SDS011;67161;0.000;0.000;2023-02-28T08:39:08;1.60;;;0.70;;
77968;SDS011;67161;0.000;0.000;2023-02-28T08:41:34;1.27;;;0.70;;
77968;SDS011;67161;0.000;0.000;2023-02-28T08:44:00;2.15;;;1.10;;
77968;SDS011;67161;0.000;0.000;2023-02-28T08:46:26;1.63;;;0.90;;
77968;SDS011;67161;0.000;0.000;2023-02-28T08:48:52;2.03;;;0.80;;
77968;SDS011;67161;0.000;0.000;2023-02-28T08:51:19;2.33;;;1.00;;
77968;SDS011;67161;0.000;0.000;2023-02-28T08:56:20;1.45;;;0.70;;
77968;SDS011;67161;0.000;0.000;2023-02-28T08:58:47;2.17;;;1.08;;
77968;SDS011;67161;0.000;0.000;2023-02-28T09:01:21;1.88;;;0.93;;
77968;SDS011;67161;0.000;0.000;2023-02-28T09:03:49;2.15;;;0.90;;
77968;SDS011;67161;0.000;0.000;2023-02-28T09:06:17;2.28;;;1.00;;
77968;SDS011;67161;0.000;0.000;2023-02-28T09:08:44;2.03;;;0.90;;
77968;SDS011;67161;0.000;0.000;2023-02-28T09:11:10;1.98;;;0.90;;
77968;SDS011;67161;0.000;0.000;2023-02-28T09:13:36;1.77;;;0.90;;
77968;SDS011;67161;0.000;0.000;2023-02-28T09:16:03;1.73;;;0.82;;
77968;SDS011;67161;0.000;0.000;2023-02-28T09:18:30;2.72;;;0.98;;
77968;SDS011;67161;0.000;0.000;2023-02-28T09:20:56;3.50;;;1.00;;
77968;SDS011;67161;0.000;0.000;2023-02-28T09:23:22;1.70;;;0.82;;
77968;SDS011;67161;0.000;0.000;2023-02-28T09:25:52;2.58;;;1.00;;
77968;SDS011;67161;0.000;0.000;2023-02-28T09:28:19;2.03;;;1.00;;
77968;SDS011;67161;0.000;0.000;2023-02-28T09:30:46;2.67;;;1.08;;
77968;SDS011;67161;0.000;0.000;2023-02-28T09:33:14;2.10;;;1.00;;
77968;SDS011;67161;0.000;0.000;2023-02-28T09:35:41;2.00;;;1.00;;
77968;SDS011;67161;0.000;0.000;2023-02-28T09:38:08;2.60;;;0.90;;
77968;SDS011;67161;0.000;0.000;2023-02-28T09:40:35;2.50;;;1.00;;
77968;SDS011;67161;0.000;0.000;2023-02-28T09:43:04;2.22;;;1.08;;
77968;SDS011;67161;0.000;0.000;2023-02-28T09:45:35;2.60;;;1.00;;
77968;SDS011;67161;0.000;0.000;2023-02-28T09:48:14;3.60;;;1.05;;
77968;SDS011;67161;0.000;0.000;2023-02-28T09:50:46;1.63;;;0.83;;
77968;SDS011;67161;0.000;0.000;2023-02-28T09:53:26;2.03;;;0.90;;
77968;SDS011;67161;0.000;0.000;2023-02-28T10:04:05;3.88;;;1.05;;
77968;SDS011;67161;0.000;0.000;2023-02-28T10:06:46;2.97;;;1.00;;
77968;SDS011;67161;0.000;0.000;2023-02-28T10:09:25;2.15;;;1.02;;
77968;SDS011;67161;0.000;0.000;2023-02-28T10:11:56;4.55;;;1.30;;
77968;SDS011;67161;0.000;0.000;2023-02-28T10:14:29;2.55;;;0.95;;
77968;SDS011;67161;0.000;0.000;2023-02-28T10:16:58;3.70;;;1.15;;
77968;SDS011;67161;0.000;0.000;2023-02-28T10:19:49;3.37;;;0.93;;
77968;SDS011;67161;0.000;0.000;2023-02-28T10:22:29;8.10;;;1.20;;
77968;SDS011;67161;0.000;0.000;2023-02-28T10:25:01;4.40;;;1.10;;
77968;SDS011;67161;0.000;0.000;2023-02-28T10:27:41;3.75;;;1.20;;
77968;SDS011;67161;0.000;0.000;2023-02-28T10:30:08;7.47;;;1.00;;
77968;SDS011;67161;0.000;0.000;2023-02-28T10:32:36;1.95;;;0.93;;
77968;SDS011;67161;0.000;0.000;2023-02-28T10:37:37;6.60;;;1.65;;
77968;SDS011;67161;0.000;0.000;2023-02-28T10:40:04;6.65;;;1.77;;
77968;SDS011;67161;0.000;0.000;2023-02-28T10:45:37;7.95;;;2.00;;
77968;SDS011;67161;0.000;0.000;2023-02-28T10:48:26;10.13;;;2.05;;
77968;SDS011;67161;0.000;0.000;2023-02-28T10:51:01;13.20;;;3.35;;
77968;SDS011;67161;0.000;0.000;2023-02-28T10:56:04;17.70;;;5.30;;
77968;SDS011;67161;0.000;0.000;2023-02-28T11:01:23;44.47;;;13.93;;
77968;SDS011;67161;0.000;0.000;2023-02-28T11:03:51;52.33;;;18.25;;
77968;SDS011;67161;0.000;0.000;2023-02-28T11:06:21;54.72;;;19.10;;
77968;SDS011;67161;0.000;0.000;2023-02-28T11:08:53;70.22;;;23.55;;
77968;SDS011;67161;0.000;0.000;2023-02-28T11:11:28;71.07;;;21.77;;
77968;SDS011;67161;0.000;0.000;2023-02-28T11:13:57;59.17;;;17.40;;
77968;SDS011;67161;0.000;0.000;2023-02-28T11:16:33;61.50;;;20.30;;
77968;SDS011;67161;0.000;0.000;2023-02-28T11:19:00;65.75;;;22.05;;
77968;SDS011;67161;0.000;0.000;2023-02-28T11:21:31;62.05;;;22.67;;
77968;SDS011;67161;0.000;0.000;2023-02-28T11:24:04;91.40;;;34.08;;
77968;SDS011;67161;0.000;0.000;2023-02-28T11:26:49;80.57;;;27.63;;
77968;SDS011;67161;0.000;0.000;2023-02-28T11:29:20;85.15;;;28.33;;
77968;SDS011;67161;0.000;0.000;2023-02-28T11:34:34;64.80;;;21.23;;
77968;SDS011;67161;0.000;0.000;2023-02-28T11:37:02;64.00;;;21.35;;
77968;SDS011;67161;0.000;0.000;2023-02-28T11:39:31;53.28;;;19.70;;
77968;SDS011;67161;0.000;0.000;2023-02-28T11:42:11;51.65;;;17.85;;
77968;SDS011;67161;0.000;0.000;2023-02-28T11:53:35;50.00;;;15.23;;
77968;SDS011;67161;0.000;0.000;2023-02-28T12:10:16;50.67;;;18.30;;
77968;SDS011;67161;0.000;0.000;2023-02-28T12:15:31;58.47;;;27.83;;
77968;SDS011;67161;0.000;0.000;2023-02-28T12:18:18;62.38;;;23.98;;
77968;SDS011;67161;0.000;0.000;2023-02-28T12:26:40;56.40;;;21.92;;
77968;SDS011;67161;0.000;0.000;2023-02-28T12:29:19;48.33;;;21.13;;
77968;SDS011;67161;0.000;0.000;2023-02-28T12:35:17;62.05;;;22.15;;
77968;SDS011;67161;0.000;0.000;2023-02-28T12:37:31;53.00;;;20.83;;
77968;SDS011;67161;0.000;0.000;2023-02-28T12:40:16;63.25;;;21.67;;
77968;SDS011;67161;0.000;0.000;2023-02-28T12:42:51;73.40;;;22.92;;
77968;SDS011;67161;0.000;0.000;2023-02-28T12:45:23;60.35;;;22.42;;
77968;SDS011;67161;0.000;0.000;2023-02-28T12:47:55;89.97;;;23.80;;
77968;SDS011;67161;0.000;0.000;2023-02-28T12:50:25;70.00;;;22.02;;
77968;SDS011;67161;0.000;0.000;2023-02-28T12:52:54;68.05;;;20.98;;
77968;SDS011;67161;0.000;0.000;2023-02-28T13:09:29;67.05;;;24.45;;
77968;SDS011;67161;0.000;0.000;2023-02-28T13:11:55;63.78;;;23.20;;
77968;SDS011;67161;0.000;0.000;2023-02-28T13:19:35;69.00;;;24.33;;
77968;SDS011;67161;0.000;0.000;2023-02-28T13:22:18;81.20;;;26.40;;
77968;SDS011;67161;0.000;0.000;2023-02-28T13:27:20;74.13;;;24.08;;
77968;SDS011;67161;0.000;0.000;2023-02-28T13:29:48;69.47;;;21.60;;
77968;SDS011;67161;0.000;0.000;2023-02-28T13:32:18;70.18;;;25.30;;
77968;SDS011;67161;0.000;0.000;2023-02-28T13:40:36;81.55;;;27.52;;
77968;SDS011;67161;0.000;0.000;2023-02-28T13:43:02;77.25;;;26.38;;
77968;SDS011;67161;0.000;0.000;2023-02-28T13:45:32;73.97;;;25.98;;
77968;SDS011;67161;0.000;0.000;2023-02-28T13:48:24;78.53;;;25.48;;
77968;SDS011;67161;0.000;0.000;2023-02-28T13:50:51;82.97;;;27.55;;
77968;SDS011;67161;0.000;0.000;2023-02-28T13:53:39;80.60;;;26.33;;
77968;SDS011;67161;0.000;0.000;2023-02-28T13:56:23;72.03;;;23.20;;
77968;SDS011;67161;0.000;0.000;2023-02-28T13:59:48;68.32;;;21.35;;
77968;SDS011;67161;0.000;0.000;2023-02-28T14:02:12;68.30;;;20.17;;
77968;SDS011;67161;0.000;0.000;2023-02-28T14:05:13;73.25;;;21.38;;
77968;SDS011;67161;0.000;0.000;2023-02-28T14:07:49;53.60;;;16.50;;
77968;SDS011;67161;0.000;0.000;2023-02-28T14:10:21;62.35;;;20.10;;
77968;SDS011;67161;0.000;0.000;2023-02-28T14:13:04;56.15;;;19.08;;
77968;SDS011;67161;0.000;0.000;2023-02-28T14:15:55;64.53;;;19.20;;
77968;SDS011;67161;0.000;0.000;2023-02-28T14:18:32;52.28;;;19.17;;
77968;SDS011;67161;0.000;0.000;2023-02-28T14:21:10;63.63;;;18.67;;
77968;SDS011;67161;0.000;0.000;2023-02-28T14:30:13;72.13;;;22.35;;
77968;SDS011;67161;0.000;0.000;2023-02-28T14:38:04;63.75;;;21.45;;
77968;SDS011;67161;0.000;0.000;2023-02-28T14:40:33;65.68;;;22.63;;
77968;SDS011;67161;0.000;0.000;2023-02-28T14:43:01;62.58;;;21.52;;
77968;SDS011;67161;0.000;0.000;2023-02-28T14:45:29;65.32;;;22.60;;
77968;SDS011;67161;0.000;0.000;2023-02-28T14:47:55;66.22;;;22.70;;
77968;SDS011;67161;0.000;0.000;2023-02-28T14:50:32;66.38;;;21.02;;
77968;SDS011;67161;0.000;0.000;2023-02-28T14:53:00;74.00;;;24.30;;
77968;SDS011;67161;0.000;0.000;2023-02-28T14:55:45;64.43;;;19.17;;
77968;SDS011;67161;0.000;0.000;2023-02-28T14:58:19;60.63;;;21.02;;
77968;SDS011;67161;0.000;0.000;2023-02-28T15:00:59;53.28;;;17.25;;
77968;SDS011;67161;0.000;0.000;2023-02-28T15:05:54;45.10;;;16.40;;
77968;SDS011;67161;0.000;0.000;2023-02-28T15:08:27;43.97;;;14.20;;
77968;SDS011;67161;0.000;0.000;2023-02-28T15:10:56;31.38;;;12.70;;
77968;SDS011;67161;0.000;0.000;2023-02-28T15:13:23;38.05;;;13.15;;
77968;SDS011;67161;0.000;0.000;2023-02-28T15:15:58;28.45;;;10.63;;
77968;SDS011;67161;0.000;0.000;2023-02-28T15:21:33;32.05;;;9.73;;
77968;SDS011;67161;0.000;0.000;2023-02-28T15:24:10;27.65;;;9.27;;
77968;SDS011;67161;0.000;0.000;2023-02-28T15:26:49;31.70;;;8.85;;
77968;SDS011;67161;0.000;0.000;2023-02-28T15:29:20;25.60;;;8.68;;
77968;SDS011;67161;0.000;0.000;2023-02-28T15:32:06;23.40;;;7.50;;
77968;SDS011;67161;0.000;0.000;2023-02-28T15:34:36;17.77;;;5.85;;
77968;SDS011;67161;0.000;0.000;2023-02-28T15:37:24;19.20;;;5.38;;
77968;SDS011;67161;0.000;0.000;2023-02-28T15:39:52;13.15;;;4.93;;
77968;SDS011;67161;0.000;0.000;2023-02-28T15:42:19;19.30;;;5.57;;
77968;SDS011;67161;0.000;0.000;2023-02-28T15:44:47;12.32;;;5.00;;
77968;SDS011;67161;0.000;0.000;2023-02-28T15:47:18;14.27;;;4.85;;
77968;SDS011;67161;0.000;0.000;2023-02-28T15:52:17;12.55;;;3.95;;
77968;SDS011;67161;0.000;0.000;2023-02-28T15:54:46;8.77;;;3.53;;
77968;SDS011;67161;0.000;0.000;2023-02-28T15:57:13;14.13;;;4.18;;
77968;SDS011;67161;0.000;0.000;2023-02-28T16:00:09;10.45;;;3.42;;
77968;SDS011;67161;0.000;0.000;2023-02-28T16:02:37;9.65;;;3.63;;
77968;SDS011;67161;0.000;0.000;2023-02-28T16:07:34;10.20;;;3.58;;
77968;SDS011;67161;0.000;0.000;2023-02-28T16:10:02;7.70;;;3.30;;
77968;SDS011;67161;0.000;0.000;2023-02-28T16:12:29;7.80;;;3.00;;
77968;SDS011;67161;0.000;0.000;2023-02-28T16:14:59;8.57;;;3.10;;
77968;SDS011;67161;0.000;0.000;2023-02-28T16:17:29;8.52;;;3.38;;
77968;SDS011;67161;0.000;0.000;2023-02-28T16:19:57;12.68;;;3.17;;
77968;SDS011;67161;0.000;0.000;2023-02-28T16:22:24;8.18;;;3.00;;
77968;SDS011;67161;0.000;0.000;2023-02-28T16:24:50;9.00;;;3.20;;
77968;SDS011;67161;0.000;0.000;2023-02-28T16:27:17;10.57;;;3.08;;
77968;SDS011;67161;0.000;0.000;2023-02-28T16:29:46;5.22;;;2.45;;
77968;SDS011;67161;0.000;0.000;2023-02-28T16:32:14;6.95;;;2.33;;
77968;SDS011;67161;0.000;0.000;2023-02-28T16:34:40;10.23;;;2.70;;
77968;SDS011;67161;0.000;0.000;2023-02-28T16:37:09;7.68;;;2.53;;
77968;SDS011;67161;0.000;0.000;2023-02-28T16:39:37;7.60;;;2.60;;
77968;SDS011;67161;0.000;0.000;2023-02-28T16:42:03;7.03;;;2.50;;
77968;SDS011;67161;0.000;0.000;2023-02-28T16:44:33;6.07;;;2.45;;
77968;SDS011;67161;0.000;0.000;2023-02-28T16:47:01;9.85;;;2.67;;
77968;SDS011;67161;0.000;0.000;2023-02-28T16:49:28;6.47;;;2.33;;
77968;SDS011;67161;0.000;0.000;2023-02-28T16:51:54;7.28;;;2.25;;
77968;SDS011;67161;0.000;0.000;2023-02-28T16:54:19;7.47;;;2.45;;
77968;SDS011;67161;0.000;0.000;2023-02-28T16:56:45;5.85;;;2.38;;
77968;SDS011;67161;0.000;0.000;2023-02-28T16:59:13;5.20;;;2.20;;
77968;SDS011;67161;0.000;0.000;2023-02-28T17:01:46;5.43;;;2.47;;
77968;SDS011;67161;0.000;0.000;2023-02-28T17:04:12;6.93;;;2.28;;
77968;SDS011;67161;0.000;0.000;2023-02-28T17:06:39;7.25;;;2.53;;
77968;SDS011;67161;0.000;0.000;2023-02-28T17:09:05;5.53;;;2.10;;
77968;SDS011;67161;0.000;0.000;2023-02-28T17:11:33;7.47;;;2.30;;
77968;SDS011;67161;0.000;0.000;2023-02-28T17:13:59;6.38;;;2.17;;
77968;SDS011;67161;0.000;0.000;2023-02-28T17:16:28;5.82;;;2.40;;
77968;SDS011;67161;0.000;0.000;2023-02-28T17:18:59;5.45;;;2.00;;
77968;SDS011;67161;0.000;0.000;2023-02-28T17:21:30;7.03;;;2.45;;
77968;SDS011;67161;0.000;0.000;2023-02-28T17:23:57;4.70;;;2.00;;
77968;SDS011;67161;0.000;0.000;2023-02-28T17:26:23;9.48;;;2.40;;
77968;SDS011;67161;0.000;0.000;2023-02-28T17:28:50;5.35;;;2.08;;
77968;SDS011;67161;0.000;0.000;2023-02-28T17:31:16;5.40;;;2.30;;